ADDS METAR Data INFO
IDs: Format: Raw Decoded Include TAF

Data at: 2320 UTC 15 Jul 2018

PHJR 152253Z 11007G16KT 10SM FEW036 SCT047 BKN060 30/23 A3000 RMK AO2 SLP166 T03000233
PHJR 152153Z 11007KT 080V140 10SM BKN037 OVC046 31/22 A3001 RMK AO2 SLP168 T03060217
PHJR 152053Z 11007KT 070V140 10SM BKN037 BKN045 31/22 A3001 RMK AO2 SLP170 T03060222 51003
PHJR 151953Z 11008KT 10SM BKN037 30/22 A3001 RMK AO2 SLP170 T03000217
PHJR 151853Z 07010G17KT 10SM CLR 29/21 A3001 RMK AO2 SLP168 T02940206
PHJR 151753Z VRB04KT 10SM CLR 28/21 A3000 RMK AO2 SLP166 T02780211 10278 20239 53006
PHJR 151653Z 05006KT 10SM CLR 26/21 A3000 RMK AO2 SLP163 T02560211
PHJR 151553Z 05004KT 10SM CLR 24/21 A2999 RMK AO2 SLP163 T02390211
PHJR 151453Z AUTO 05004KT 10SM CLR 24/21 A2999 RMK AO2 SLP160 T02390211 55003 TSNO
PHJR 151353Z AUTO 06004KT 10SM FEW031 24/21 A2998 RMK AO2 SLP158 T02440206 TSNO
PHJR 151253Z AUTO 06003KT 10SM CLR 24/21 A2998 RMK AO2 SLP158 T02440211 TSNO
PHJR 151153Z AUTO 06004KT 10SM CLR 25/21 A3000 RMK AO2 SLP164 T02500211 10272 20244 58014 TSNO
PHJR 151053Z AUTO 05004KT 10SM BKN041 26/22 A3001 RMK AO2 SLP169 T02560217 TSNO
PHJR 150953Z AUTO 06004KT 10SM CLR 25/21 A3003 RMK AO2 SLP174 T02500206 403220239 TSNO
PHJR 150853Z AUTO 07004KT 10SM CLR 26/21 A3004 RMK AO2 SLP178 T02610211 50009 TSNO
PHJR 150753Z 07003KT 10SM FEW037 26/21 A3004 RMK AO2 SLP178 T02610211
PHJR 150653Z 07005KT 10SM SCT037 BKN048 27/21 A3003 RMK AO2 SLP175 T02670211
PHJR 150553Z 07004KT 10SM CLR 27/21 A3001 RMK AO2 SLP168 T02720206 10322 20272 53009
PHJR 150453Z 06008KT 10SM SCT034 28/21 A2999 RMK AO2 SLP162 T02780206
PHJR 150353Z 07008KT 10SM BKN036 BKN045 30/21 A2998 RMK AO2 SLP158 T03000206
PHJR 150253Z 05010G17KT 10SM FEW040 SCT047 30/20 A2998 RMK AO2 SLP159 T03000200 58004
PHJR 150153Z 05007KT 10SM OVC070 29/21 A2999 RMK AO2 SLP162 T02940206
PHJR 150053Z 04009G19KT 360V070 10SM FEW040 32/20 A2999 RMK AO2 SLP162 T03170200
PHJR 142353Z 08008G17KT 030V120 10SM SCT042 31/20 A3000 RMK AO2 SLP163 T03110200 10322 20267 58008
PHJR 142253Z 04009G16KT 010V080 10SM FEW040 32/21 A3001 RMK AO2 SLP167 T03170206
PHJR 142153Z 08008G16KT 050V120 10SM BKN036 BKN060 31/21 A3001 RMK AO2 SLP169 T03110206
PHJR 142053Z 07008KT 030V120 10SM FEW029 FEW070 30/22 A3002 RMK AO2 SLP171 T03000217 50001
PHJR 141953Z 05007G16KT 020V090 10SM CLR 30/22 A3002 RMK AO2 SLP171 T03000217
PHJR 141853Z 04007G14KT 350V070 10SM BKN070 28/22 A3002 RMK AO2 SLP171 T02830217
PHJR 141753Z 04007KT 10SM BKN070 27/22 A3002 RMK AO2 SLP170 60000 T02670217 10267 20239 53009
PHJR 141653Z 05005KT 10SM BKN070 25/21 A3000 RMK AO2 SLP166 T02500211
PHJR 141553Z AUTO 06005KT 10SM BKN070 24/21 A2999 RMK AO2 SLP162 T02440211 TSNO
PHJR 141453Z AUTO 04004KT 10SM BKN070 24/22 A2999 RMK AO2 SLP161 60000 T02390217 58003 TSNO
PHJR 141353Z AUTO 07004KT 10SM SCT040 BKN080 24/22 A2999 RMK AO2 SLP162 T02440217 TSNO
PHJR 141253Z AUTO 05004KT 10SM FEW075 SCT090 24/22 A3000 RMK AO2 RAB23E37 SLP163 P0000 T02440217 TSNO
PHJR 141153Z AUTO VRB04KT 10SM FEW043 FEW060 25/21 A3000 RMK AO2 SLP164 T02500211 10267 20250 58017 TSNO